sensor_id;sensor_type;location;lat;lon;timestamp;P1;durP1;ratioP1;P2;durP2;ratioP2
18574;SDS011;9417;16.484;102.872;2022-11-02T00:01:42;38.50;;;27.48;;
18574;SDS011;9417;16.484;102.872;2022-11-02T00:03:50;32.95;;;23.85;;
18574;SDS011;9417;16.484;102.872;2022-11-02T00:05:59;27.70;;;21.45;;
18574;SDS011;9417;16.484;102.872;2022-11-02T00:08:07;32.42;;;19.98;;
18574;SDS011;9417;16.484;102.872;2022-11-02T00:10:14;30.63;;;20.15;;
18574;SDS011;9417;16.484;102.872;2022-11-02T00:12:21;28.75;;;18.95;;
18574;SDS011;9417;16.484;102.872;2022-11-02T00:14:29;28.23;;;20.00;;
18574;SDS011;9417;16.484;102.872;2022-11-02T00:16:36;31.98;;;21.23;;
18574;SDS011;9417;16.484;102.872;2022-11-02T00:18:45;26.92;;;19.48;;
18574;SDS011;9417;16.484;102.872;2022-11-02T00:20:55;29.02;;;18.73;;
18574;SDS011;9417;16.484;102.872;2022-11-02T00:23:04;26.75;;;19.05;;
18574;SDS011;9417;16.484;102.872;2022-11-02T00:25:13;28.60;;;18.88;;
18574;SDS011;9417;16.484;102.872;2022-11-02T00:27:23;25.83;;;17.67;;
18574;SDS011;9417;16.484;102.872;2022-11-02T00:29:30;28.85;;;17.98;;
18574;SDS011;9417;16.484;102.872;2022-11-02T00:31:40;26.63;;;16.83;;
18574;SDS011;9417;16.484;102.872;2022-11-02T00:33:47;25.27;;;17.60;;
18574;SDS011;9417;16.484;102.872;2022-11-02T00:35:54;23.92;;;16.70;;
18574;SDS011;9417;16.484;102.872;2022-11-02T00:38:04;22.63;;;16.55;;
18574;SDS011;9417;16.484;102.872;2022-11-02T00:40:12;27.90;;;16.33;;
18574;SDS011;9417;16.484;102.872;2022-11-02T00:42:19;25.13;;;16.10;;
18574;SDS011;9417;16.484;102.872;2022-11-02T00:44:26;23.65;;;14.85;;
18574;SDS011;9417;16.484;102.872;2022-11-02T00:46:33;21.15;;;13.90;;
18574;SDS011;9417;16.484;102.872;2022-11-02T00:48:41;21.27;;;13.63;;
18574;SDS011;9417;16.484;102.872;2022-11-02T00:50:48;23.15;;;14.60;;
18574;SDS011;9417;16.484;102.872;2022-11-02T00:52:58;21.30;;;13.98;;
18574;SDS011;9417;16.484;102.872;2022-11-02T00:55:07;20.33;;;13.73;;
18574;SDS011;9417;16.484;102.872;2022-11-02T00:57:17;19.98;;;12.77;;
18574;SDS011;9417;16.484;102.872;2022-11-02T00:59:24;20.50;;;12.75;;
18574;SDS011;9417;16.484;102.872;2022-11-02T01:01:32;21.58;;;12.63;;
18574;SDS011;9417;16.484;102.872;2022-11-02T01:03:39;21.45;;;13.55;;
18574;SDS011;9417;16.484;102.872;2022-11-02T01:05:46;23.25;;;13.13;;
18574;SDS011;9417;16.484;102.872;2022-11-02T01:07:53;19.25;;;13.15;;
18574;SDS011;9417;16.484;102.872;2022-11-02T01:10:01;22.08;;;14.40;;
18574;SDS011;9417;16.484;102.872;2022-11-02T01:12:10;24.05;;;15.07;;
18574;SDS011;9417;16.484;102.872;2022-11-02T01:14:18;19.05;;;13.43;;
18574;SDS011;9417;16.484;102.872;2022-11-02T01:16:26;17.40;;;12.07;;
18574;SDS011;9417;16.484;102.872;2022-11-02T01:18:34;19.38;;;13.38;;
18574;SDS011;9417;16.484;102.872;2022-11-02T01:20:44;18.88;;;12.48;;
18574;SDS011;9417;16.484;102.872;2022-11-02T01:22:53;20.77;;;14.10;;
18574;SDS011;9417;16.484;102.872;2022-11-02T01:25:02;21.05;;;13.50;;
18574;SDS011;9417;16.484;102.872;2022-11-02T01:27:12;20.63;;;12.65;;
18574;SDS011;9417;16.484;102.872;2022-11-02T01:29:19;19.58;;;12.95;;
18574;SDS011;9417;16.484;102.872;2022-11-02T01:31:26;17.80;;;12.80;;
18574;SDS011;9417;16.484;102.872;2022-11-02T01:33:34;21.23;;;12.90;;
18574;SDS011;9417;16.484;102.872;2022-11-02T01:35:42;18.00;;;13.32;;
18574;SDS011;9417;16.484;102.872;2022-11-02T01:37:50;22.95;;;14.05;;
18574;SDS011;9417;16.484;102.872;2022-11-02T01:39:58;19.23;;;14.00;;
18574;SDS011;9417;16.484;102.872;2022-11-02T01:42:16;24.40;;;14.85;;
18574;SDS011;9417;16.484;102.872;2022-11-02T01:44:28;20.63;;;13.85;;
18574;SDS011;9417;16.484;102.872;2022-11-02T01:46:38;16.85;;;12.05;;
18574;SDS011;9417;16.484;102.872;2022-11-02T01:48:49;21.73;;;12.73;;
18574;SDS011;9417;16.484;102.872;2022-11-02T01:53:09;22.77;;;12.45;;
18574;SDS011;9417;16.484;102.872;2022-11-02T01:55:17;19.85;;;12.32;;
18574;SDS011;9417;16.484;102.872;2022-11-02T01:57:29;17.67;;;11.32;;
18574;SDS011;9417;16.484;102.872;2022-11-02T01:59:40;20.15;;;11.57;;
18574;SDS011;9417;16.484;102.872;2022-11-02T02:01:50;20.73;;;11.35;;
18574;SDS011;9417;16.484;102.872;2022-11-02T02:03:58;17.25;;;11.60;;
18574;SDS011;9417;16.484;102.872;2022-11-02T02:06:11;17.33;;;10.18;;
18574;SDS011;9417;16.484;102.872;2022-11-02T02:08:20;18.85;;;10.88;;
18574;SDS011;9417;16.484;102.872;2022-11-02T02:10:29;16.70;;;11.30;;
18574;SDS011;9417;16.484;102.872;2022-11-02T02:12:41;18.92;;;10.77;;
18574;SDS011;9417;16.484;102.872;2022-11-02T02:14:52;15.13;;;10.55;;
18574;SDS011;9417;16.484;102.872;2022-11-02T02:17:06;15.52;;;10.65;;
18574;SDS011;9417;16.484;102.872;2022-11-02T02:19:30;16.98;;;10.75;;
18574;SDS011;9417;16.484;102.872;2022-11-02T02:21:46;18.75;;;11.82;;
18574;SDS011;9417;16.484;102.872;2022-11-02T02:24:19;18.00;;;11.10;;
18574;SDS011;9417;16.484;102.872;2022-11-02T02:26:46;17.13;;;11.00;;
18574;SDS011;9417;16.484;102.872;2022-11-02T02:29:19;16.65;;;10.55;;
18574;SDS011;9417;16.484;102.872;2022-11-02T02:31:31;15.80;;;10.18;;
18574;SDS011;9417;16.484;102.872;2022-11-02T02:33:42;16.42;;;10.63;;
18574;SDS011;9417;16.484;102.872;2022-11-02T02:35:57;17.73;;;11.15;;
18574;SDS011;9417;16.484;102.872;2022-11-02T02:38:10;17.17;;;10.85;;
18574;SDS011;9417;16.484;102.872;2022-11-02T02:40:20;16.23;;;11.23;;
18574;SDS011;9417;16.484;102.872;2022-11-02T02:42:32;18.88;;;11.52;;
18574;SDS011;9417;16.484;102.872;2022-11-02T02:44:46;15.68;;;11.45;;
18574;SDS011;9417;16.484;102.872;2022-11-02T02:46:59;14.57;;;10.20;;
18574;SDS011;9417;16.484;102.872;2022-11-02T02:49:12;17.60;;;10.57;;
18574;SDS011;9417;16.484;102.872;2022-11-02T02:51:25;15.45;;;10.35;;
18574;SDS011;9417;16.484;102.872;2022-11-02T02:53:40;20.83;;;11.18;;
18574;SDS011;9417;16.484;102.872;2022-11-02T02:55:52;16.15;;;10.55;;
18574;SDS011;9417;16.484;102.872;2022-11-02T02:57:59;15.52;;;10.88;;
18574;SDS011;9417;16.484;102.872;2022-11-02T03:00:13;15.73;;;10.65;;
18574;SDS011;9417;16.484;102.872;2022-11-02T03:02:23;15.60;;;10.60;;
18574;SDS011;9417;16.484;102.872;2022-11-02T03:04:35;18.52;;;11.13;;
18574;SDS011;9417;16.484;102.872;2022-11-02T03:06:44;19.10;;;10.43;;
18574;SDS011;9417;16.484;102.872;2022-11-02T03:08:56;13.98;;;10.20;;
18574;SDS011;9417;16.484;102.872;2022-11-02T03:11:11;15.50;;;10.35;;
18574;SDS011;9417;16.484;102.872;2022-11-02T03:16:00;17.63;;;11.13;;
18574;SDS011;9417;16.484;102.872;2022-11-02T03:18:15;14.52;;;10.18;;
18574;SDS011;9417;16.484;102.872;2022-11-02T03:20:31;12.52;;;9.32;;
18574;SDS011;9417;16.484;102.872;2022-11-02T03:22:51;15.13;;;9.55;;
18574;SDS011;9417;16.484;102.872;2022-11-02T03:25:09;13.57;;;9.73;;
18574;SDS011;9417;16.484;102.872;2022-11-02T03:27:24;13.85;;;9.85;;
18574;SDS011;9417;16.484;102.872;2022-11-02T03:29:41;14.73;;;9.65;;
18574;SDS011;9417;16.484;102.872;2022-11-02T03:31:55;15.60;;;9.98;;
18574;SDS011;9417;16.484;102.872;2022-11-02T03:34:13;15.43;;;9.93;;
18574;SDS011;9417;16.484;102.872;2022-11-02T03:36:31;16.80;;;10.32;;
18574;SDS011;9417;16.484;102.872;2022-11-02T03:38:42;18.15;;;10.13;;
18574;SDS011;9417;16.484;102.872;2022-11-02T03:40:52;12.02;;;9.05;;
18574;SDS011;9417;16.484;102.872;2022-11-02T03:43:02;13.88;;;8.75;;
18574;SDS011;9417;16.484;102.872;2022-11-02T03:45:11;10.38;;;8.30;;
18574;SDS011;9417;16.484;102.872;2022-11-02T03:47:22;13.15;;;9.88;;
18574;SDS011;9417;16.484;102.872;2022-11-02T03:49:37;14.32;;;10.02;;
18574;SDS011;9417;16.484;102.872;2022-11-02T03:53:57;13.07;;;9.75;;
18574;SDS011;9417;16.484;102.872;2022-11-02T03:56:13;13.77;;;9.15;;
18574;SDS011;9417;16.484;102.872;2022-11-02T03:58:25;12.80;;;9.70;;
18574;SDS011;9417;16.484;102.872;2022-11-02T04:00:32;13.13;;;9.43;;
18574;SDS011;9417;16.484;102.872;2022-11-02T04:02:45;16.33;;;10.67;;
18574;SDS011;9417;16.484;102.872;2022-11-02T04:04:54;16.52;;;9.38;;
18574;SDS011;9417;16.484;102.872;2022-11-02T04:07:02;10.70;;;8.45;;
18574;SDS011;9417;16.484;102.872;2022-11-02T04:09:09;11.23;;;8.43;;
18574;SDS011;9417;16.484;102.872;2022-11-02T04:11:17;13.43;;;8.70;;
18574;SDS011;9417;16.484;102.872;2022-11-02T04:13:44;11.00;;;8.63;;
18574;SDS011;9417;16.484;102.872;2022-11-02T04:16:14;10.65;;;8.02;;
18574;SDS011;9417;16.484;102.872;2022-11-02T04:18:32;11.80;;;7.63;;
18574;SDS011;9417;16.484;102.872;2022-11-02T04:20:56;12.18;;;7.97;;
18574;SDS011;9417;16.484;102.872;2022-11-02T04:23:03;10.75;;;8.02;;
18574;SDS011;9417;16.484;102.872;2022-11-02T04:25:27;11.80;;;8.55;;
18574;SDS011;9417;16.484;102.872;2022-11-02T04:27:49;11.35;;;7.90;;
18574;SDS011;9417;16.484;102.872;2022-11-02T04:30:02;11.48;;;7.82;;
18574;SDS011;9417;16.484;102.872;2022-11-02T04:32:10;9.43;;;7.13;;
18574;SDS011;9417;16.484;102.872;2022-11-02T04:34:19;9.77;;;7.22;;
18574;SDS011;9417;16.484;102.872;2022-11-02T04:36:25;11.43;;;7.80;;
18574;SDS011;9417;16.484;102.872;2022-11-02T04:38:34;13.20;;;8.32;;
18574;SDS011;9417;16.484;102.872;2022-11-02T04:40:58;12.05;;;7.85;;
18574;SDS011;9417;16.484;102.872;2022-11-02T04:43:22;11.93;;;7.70;;
18574;SDS011;9417;16.484;102.872;2022-11-02T04:45:29;9.95;;;7.80;;
18574;SDS011;9417;16.484;102.872;2022-11-02T04:47:37;12.90;;;8.98;;
18574;SDS011;9417;16.484;102.872;2022-11-02T04:49:46;13.98;;;8.27;;
18574;SDS011;9417;16.484;102.872;2022-11-02T04:51:54;9.95;;;7.95;;
18574;SDS011;9417;16.484;102.872;2022-11-02T04:54:03;10.95;;;8.70;;
18574;SDS011;9417;16.484;102.872;2022-11-02T04:56:13;10.63;;;8.02;;
18574;SDS011;9417;16.484;102.872;2022-11-02T04:58:21;15.13;;;8.40;;
18574;SDS011;9417;16.484;102.872;2022-11-02T05:00:28;11.90;;;8.70;;
18574;SDS011;9417;16.484;102.872;2022-11-02T05:02:35;11.32;;;7.88;;
18574;SDS011;9417;16.484;102.872;2022-11-02T05:04:43;12.00;;;7.60;;
18574;SDS011;9417;16.484;102.872;2022-11-02T05:06:52;10.80;;;7.70;;
18574;SDS011;9417;16.484;102.872;2022-11-02T05:09:08;10.88;;;7.93;;
18574;SDS011;9417;16.484;102.872;2022-11-02T05:11:19;11.48;;;7.72;;
18574;SDS011;9417;16.484;102.872;2022-11-02T05:13:29;12.30;;;7.90;;
18574;SDS011;9417;16.484;102.872;2022-11-02T05:15:37;10.68;;;7.72;;
18574;SDS011;9417;16.484;102.872;2022-11-02T05:17:47;9.98;;;8.07;;
18574;SDS011;9417;16.484;102.872;2022-11-02T05:19:54;12.38;;;7.88;;
18574;SDS011;9417;16.484;102.872;2022-11-02T05:22:03;12.05;;;8.15;;
18574;SDS011;9417;16.484;102.872;2022-11-02T05:24:10;10.32;;;7.93;;
18574;SDS011;9417;16.484;102.872;2022-11-02T05:26:18;11.43;;;8.25;;
18574;SDS011;9417;16.484;102.872;2022-11-02T05:28:25;14.60;;;8.55;;
18574;SDS011;9417;16.484;102.872;2022-11-02T05:30:33;11.73;;;8.00;;
18574;SDS011;9417;16.484;102.872;2022-11-02T05:32:41;10.57;;;8.07;;
18574;SDS011;9417;16.484;102.872;2022-11-02T05:34:48;10.05;;;8.00;;
18574;SDS011;9417;16.484;102.872;2022-11-02T05:36:55;11.23;;;7.85;;
18574;SDS011;9417;16.484;102.872;2022-11-02T05:39:04;11.60;;;8.43;;
18574;SDS011;9417;16.484;102.872;2022-11-02T05:41:12;10.02;;;8.02;;
18574;SDS011;9417;16.484;102.872;2022-11-02T05:43:20;12.07;;;8.27;;
18574;SDS011;9417;16.484;102.872;2022-11-02T05:45:27;12.27;;;8.27;;
18574;SDS011;9417;16.484;102.872;2022-11-02T05:47:35;11.27;;;8.02;;
18574;SDS011;9417;16.484;102.872;2022-11-02T05:49:42;9.73;;;7.65;;
18574;SDS011;9417;16.484;102.872;2022-11-02T05:51:49;12.60;;;8.10;;
18574;SDS011;9417;16.484;102.872;2022-11-02T05:53:57;13.10;;;8.32;;
18574;SDS011;9417;16.484;102.872;2022-11-02T05:56:07;13.43;;;8.40;;
18574;SDS011;9417;16.484;102.872;2022-11-02T05:58:16;11.90;;;8.00;;
18574;SDS011;9417;16.484;102.872;2022-11-02T06:00:23;10.70;;;8.07;;
18574;SDS011;9417;16.484;102.872;2022-11-02T06:02:32;10.23;;;8.05;;
18574;SDS011;9417;16.484;102.872;2022-11-02T06:04:39;10.38;;;7.88;;
18574;SDS011;9417;16.484;102.872;2022-11-02T06:06:46;10.93;;;7.65;;
18574;SDS011;9417;16.484;102.872;2022-11-02T06:08:53;17.17;;;9.13;;
18574;SDS011;9417;16.484;102.872;2022-11-02T06:11:10;10.30;;;7.68;;
18574;SDS011;9417;16.484;102.872;2022-11-02T06:13:18;12.10;;;8.43;;
18574;SDS011;9417;16.484;102.872;2022-11-02T06:15:25;11.98;;;8.45;;
18574;SDS011;9417;16.484;102.872;2022-11-02T06:17:36;13.48;;;7.90;;
18574;SDS011;9417;16.484;102.872;2022-11-02T06:19:44;11.00;;;8.27;;
18574;SDS011;9417;16.484;102.872;2022-11-02T06:21:51;9.85;;;7.20;;
18574;SDS011;9417;16.484;102.872;2022-11-02T06:23:59;10.40;;;8.18;;
18574;SDS011;9417;16.484;102.872;2022-11-02T06:26:06;10.43;;;7.60;;
18574;SDS011;9417;16.484;102.872;2022-11-02T06:28:15;10.23;;;8.13;;
18574;SDS011;9417;16.484;102.872;2022-11-02T06:30:23;12.75;;;7.75;;
18574;SDS011;9417;16.484;102.872;2022-11-02T06:32:31;12.20;;;7.93;;
18574;SDS011;9417;16.484;102.872;2022-11-02T06:34:41;11.23;;;8.50;;
18574;SDS011;9417;16.484;102.872;2022-11-02T06:36:49;13.40;;;8.88;;
18574;SDS011;9417;16.484;102.872;2022-11-02T06:38:57;11.38;;;7.60;;
18574;SDS011;9417;16.484;102.872;2022-11-02T06:41:04;10.82;;;7.90;;
18574;SDS011;9417;16.484;102.872;2022-11-02T06:43:13;13.75;;;7.65;;
18574;SDS011;9417;16.484;102.872;2022-11-02T06:45:22;12.23;;;8.32;;
18574;SDS011;9417;16.484;102.872;2022-11-02T06:47:30;13.77;;;8.50;;
18574;SDS011;9417;16.484;102.872;2022-11-02T06:49:38;9.98;;;7.97;;
18574;SDS011;9417;16.484;102.872;2022-11-02T06:51:45;10.02;;;7.75;;
18574;SDS011;9417;16.484;102.872;2022-11-02T06:53:55;10.85;;;7.90;;
18574;SDS011;9417;16.484;102.872;2022-11-02T06:56:10;10.40;;;7.82;;
18574;SDS011;9417;16.484;102.872;2022-11-02T06:58:19;11.57;;;8.65;;
18574;SDS011;9417;16.484;102.872;2022-11-02T07:00:27;13.65;;;8.77;;
18574;SDS011;9417;16.484;102.872;2022-11-02T07:02:34;9.35;;;7.60;;
18574;SDS011;9417;16.484;102.872;2022-11-02T07:04:41;14.70;;;8.02;;
18574;SDS011;9417;16.484;102.872;2022-11-02T07:06:48;14.13;;;8.45;;
18574;SDS011;9417;16.484;102.872;2022-11-02T07:08:56;9.80;;;7.70;;
18574;SDS011;9417;16.484;102.872;2022-11-02T07:11:03;10.10;;;7.88;;
18574;SDS011;9417;16.484;102.872;2022-11-02T07:13:10;9.18;;;7.88;;
18574;SDS011;9417;16.484;102.872;2022-11-02T07:15:19;11.15;;;7.85;;
18574;SDS011;9417;16.484;102.872;2022-11-02T07:17:28;10.88;;;8.30;;
18574;SDS011;9417;16.484;102.872;2022-11-02T07:19:35;10.02;;;8.02;;
18574;SDS011;9417;16.484;102.872;2022-11-02T07:21:42;10.23;;;8.00;;
18574;SDS011;9417;16.484;102.872;2022-11-02T07:23:50;10.90;;;7.78;;
18574;SDS011;9417;16.484;102.872;2022-11-02T07:25:57;11.10;;;7.40;;
18574;SDS011;9417;16.484;102.872;2022-11-02T07:28:07;9.35;;;7.63;;
18574;SDS011;9417;16.484;102.872;2022-11-02T07:30:15;12.85;;;7.72;;
18574;SDS011;9417;16.484;102.872;2022-11-02T07:32:24;10.20;;;8.30;;
18574;SDS011;9417;16.484;102.872;2022-11-02T07:34:31;12.95;;;7.85;;
18574;SDS011;9417;16.484;102.872;2022-11-02T07:36:38;12.60;;;8.30;;
18574;SDS011;9417;16.484;102.872;2022-11-02T07:38:46;10.23;;;8.00;;
18574;SDS011;9417;16.484;102.872;2022-11-02T07:40:53;11.23;;;8.45;;
18574;SDS011;9417;16.484;102.872;2022-11-02T07:43:00;8.60;;;7.25;;
18574;SDS011;9417;16.484;102.872;2022-11-02T07:45:21;8.85;;;7.22;;
18574;SDS011;9417;16.484;102.872;2022-11-02T07:47:31;9.10;;;7.15;;
18574;SDS011;9417;16.484;102.872;2022-11-02T07:49:38;10.07;;;8.10;;
18574;SDS011;9417;16.484;102.872;2022-11-02T07:51:45;11.15;;;7.22;;
18574;SDS011;9417;16.484;102.872;2022-11-02T07:53:53;11.90;;;8.23;;
18574;SDS011;9417;16.484;102.872;2022-11-02T07:56:00;11.18;;;8.57;;
18574;SDS011;9417;16.484;102.872;2022-11-02T07:58:09;12.73;;;8.02;;
18574;SDS011;9417;16.484;102.872;2022-11-02T08:00:18;10.52;;;8.18;;
18574;SDS011;9417;16.484;102.872;2022-11-02T08:02:25;12.02;;;7.78;;
18574;SDS011;9417;16.484;102.872;2022-11-02T08:04:34;9.45;;;6.85;;
18574;SDS011;9417;16.484;102.872;2022-11-02T08:06:47;9.48;;;7.22;;
18574;SDS011;9417;16.484;102.872;2022-11-02T08:08:54;10.52;;;7.80;;
18574;SDS011;9417;16.484;102.872;2022-11-02T08:11:05;10.43;;;8.00;;
18574;SDS011;9417;16.484;102.872;2022-11-02T08:13:14;9.25;;;7.47;;
18574;SDS011;9417;16.484;102.872;2022-11-02T08:15:23;13.48;;;8.05;;
18574;SDS011;9417;16.484;102.872;2022-11-02T08:17:30;11.38;;;8.00;;
18574;SDS011;9417;16.484;102.872;2022-11-02T08:19:40;13.38;;;7.97;;
18574;SDS011;9417;16.484;102.872;2022-11-02T08:21:47;11.68;;;7.30;;
18574;SDS011;9417;16.484;102.872;2022-11-02T08:23:55;11.02;;;7.97;;
18574;SDS011;9417;16.484;102.872;2022-11-02T08:26:02;10.45;;;7.32;;
18574;SDS011;9417;16.484;102.872;2022-11-02T08:28:10;7.90;;;6.55;;
18574;SDS011;9417;16.484;102.872;2022-11-02T08:30:19;12.77;;;7.63;;
18574;SDS011;9417;16.484;102.872;2022-11-02T08:32:26;10.75;;;7.85;;
18574;SDS011;9417;16.484;102.872;2022-11-02T08:34:33;9.77;;;7.03;;
18574;SDS011;9417;16.484;102.872;2022-11-02T08:36:43;8.63;;;6.57;;
18574;SDS011;9417;16.484;102.872;2022-11-02T08:38:50;10.50;;;6.72;;
18574;SDS011;9417;16.484;102.872;2022-11-02T08:40:57;9.55;;;7.22;;
18574;SDS011;9417;16.484;102.872;2022-11-02T08:43:05;7.88;;;6.38;;
18574;SDS011;9417;16.484;102.872;2022-11-02T08:45:13;9.27;;;7.03;;
18574;SDS011;9417;16.484;102.872;2022-11-02T08:47:20;8.27;;;6.30;;
18574;SDS011;9417;16.484;102.872;2022-11-02T08:49:27;9.68;;;6.70;;
18574;SDS011;9417;16.484;102.872;2022-11-02T08:51:34;10.13;;;6.38;;
18574;SDS011;9417;16.484;102.872;2022-11-02T08:53:43;8.95;;;6.78;;
18574;SDS011;9417;16.484;102.872;2022-11-02T08:58:02;8.77;;;6.40;;
18574;SDS011;9417;16.484;102.872;2022-11-02T09:00:10;8.98;;;6.75;;
18574;SDS011;9417;16.484;102.872;2022-11-02T09:02:18;9.65;;;7.03;;
18574;SDS011;9417;16.484;102.872;2022-11-02T09:04:25;11.05;;;7.07;;
18574;SDS011;9417;16.484;102.872;2022-11-02T09:06:32;9.98;;;7.35;;
18574;SDS011;9417;16.484;102.872;2022-11-02T09:08:39;10.20;;;6.90;;
18574;SDS011;9417;16.484;102.872;2022-11-02T09:10:49;8.98;;;6.78;;
18574;SDS011;9417;16.484;102.872;2022-11-02T09:12:57;9.73;;;7.03;;
18574;SDS011;9417;16.484;102.872;2022-11-02T09:15:06;8.88;;;6.45;;
18574;SDS011;9417;16.484;102.872;2022-11-02T09:17:14;7.80;;;6.38;;
18574;SDS011;9417;16.484;102.872;2022-11-02T09:19:21;9.48;;;6.97;;
18574;SDS011;9417;16.484;102.872;2022-11-02T09:21:29;7.65;;;6.40;;
18574;SDS011;9417;16.484;102.872;2022-11-02T09:23:36;9.50;;;7.20;;
18574;SDS011;9417;16.484;102.872;2022-11-02T09:25:43;8.43;;;6.85;;
18574;SDS011;9417;16.484;102.872;2022-11-02T09:27:53;9.45;;;7.07;;
18574;SDS011;9417;16.484;102.872;2022-11-02T09:30:01;8.85;;;7.13;;
18574;SDS011;9417;16.484;102.872;2022-11-02T09:32:09;10.65;;;7.55;;
18574;SDS011;9417;16.484;102.872;2022-11-02T09:34:16;14.07;;;7.35;;
18574;SDS011;9417;16.484;102.872;2022-11-02T09:36:24;11.55;;;7.07;;
18574;SDS011;9417;16.484;102.872;2022-11-02T09:38:32;8.80;;;7.88;;
18574;SDS011;9417;16.484;102.872;2022-11-02T09:40:40;10.80;;;7.50;;
18574;SDS011;9417;16.484;102.872;2022-11-02T09:42:55;9.60;;;7.50;;
18574;SDS011;9417;16.484;102.872;2022-11-02T09:45:11;10.43;;;8.05;;
18574;SDS011;9417;16.484;102.872;2022-11-02T09:47:21;38.47;;;21.75;;
18574;SDS011;9417;16.484;102.872;2022-11-02T09:49:49;25.40;;;17.45;;
18574;SDS011;9417;16.484;102.872;2022-11-02T09:51:57;25.90;;;15.15;;
18574;SDS011;9417;16.484;102.872;2022-11-02T09:54:07;12.25;;;9.63;;
18574;SDS011;9417;16.484;102.872;2022-11-02T09:56:20;11.57;;;8.68;;
18574;SDS011;9417;16.484;102.872;2022-11-02T09:58:31;10.43;;;8.35;;
18574;SDS011;9417;16.484;102.872;2022-11-02T10:00:41;11.27;;;7.35;;
18574;SDS011;9417;16.484;102.872;2022-11-02T10:02:57;9.88;;;7.72;;
18574;SDS011;9417;16.484;102.872;2022-11-02T10:05:20;13.68;;;8.07;;
18574;SDS011;9417;16.484;102.872;2022-11-02T10:07:49;11.65;;;8.02;;
18574;SDS011;9417;16.484;102.872;2022-11-02T10:10:08;11.80;;;7.85;;
18574;SDS011;9417;16.484;102.872;2022-11-02T10:12:20;10.77;;;8.20;;
18574;SDS011;9417;16.484;102.872;2022-11-02T10:14:36;12.52;;;9.23;;
18574;SDS011;9417;16.484;102.872;2022-11-02T10:16:50;11.60;;;8.98;;
18574;SDS011;9417;16.484;102.872;2022-11-02T10:19:02;12.15;;;8.52;;
18574;SDS011;9417;16.484;102.872;2022-11-02T10:21:16;13.85;;;9.90;;
18574;SDS011;9417;16.484;102.872;2022-11-02T10:23:27;13.32;;;9.32;;
18574;SDS011;9417;16.484;102.872;2022-11-02T10:25:36;15.95;;;9.90;;
18574;SDS011;9417;16.484;102.872;2022-11-02T10:27:45;15.40;;;9.98;;
18574;SDS011;9417;16.484;102.872;2022-11-02T10:29:58;14.02;;;9.68;;
18574;SDS011;9417;16.484;102.872;2022-11-02T10:32:09;14.60;;;9.32;;
18574;SDS011;9417;16.484;102.872;2022-11-02T10:34:21;13.20;;;9.63;;
18574;SDS011;9417;16.484;102.872;2022-11-02T10:36:34;12.65;;;8.80;;
18574;SDS011;9417;16.484;102.872;2022-11-02T10:38:53;13.65;;;9.57;;
18574;SDS011;9417;16.484;102.872;2022-11-02T10:41:13;14.23;;;8.68;;
18574;SDS011;9417;16.484;102.872;2022-11-02T10:43:35;12.32;;;9.68;;
18574;SDS011;9417;16.484;102.872;2022-11-02T10:48:27;15.82;;;9.15;;
18574;SDS011;9417;16.484;102.872;2022-11-02T10:50:43;16.65;;;9.27;;
18574;SDS011;9417;16.484;102.872;2022-11-02T10:52:53;15.30;;;9.73;;
18574;SDS011;9417;16.484;102.872;2022-11-02T10:55:25;14.40;;;10.20;;
18574;SDS011;9417;16.484;102.872;2022-11-02T10:59:44;13.13;;;9.07;;
18574;SDS011;9417;16.484;102.872;2022-11-02T11:02:29;15.80;;;10.05;;
18574;SDS011;9417;16.484;102.872;2022-11-02T11:04:36;16.25;;;10.57;;
18574;SDS011;9417;16.484;102.872;2022-11-02T11:06:44;18.40;;;11.10;;
18574;SDS011;9417;16.484;102.872;2022-11-02T11:08:52;19.98;;;11.15;;
18574;SDS011;9417;16.484;102.872;2022-11-02T11:11:09;18.20;;;10.82;;
18574;SDS011;9417;16.484;102.872;2022-11-02T11:13:21;16.42;;;10.98;;
18574;SDS011;9417;16.484;102.872;2022-11-02T11:15:49;17.88;;;11.50;;
18574;SDS011;9417;16.484;102.872;2022-11-02T11:17:58;17.42;;;12.48;;
18574;SDS011;9417;16.484;102.872;2022-11-02T11:20:35;22.83;;;12.93;;
18574;SDS011;9417;16.484;102.872;2022-11-02T11:22:43;22.88;;;13.23;;
18574;SDS011;9417;16.484;102.872;2022-11-02T11:24:51;20.48;;;12.80;;
18574;SDS011;9417;16.484;102.872;2022-11-02T11:27:03;22.70;;;13.27;;
18574;SDS011;9417;16.484;102.872;2022-11-02T11:29:20;23.88;;;13.80;;
18574;SDS011;9417;16.484;102.872;2022-11-02T11:31:28;18.45;;;13.00;;
18574;SDS011;9417;16.484;102.872;2022-11-02T11:33:45;19.02;;;13.60;;
18574;SDS011;9417;16.484;102.872;2022-11-02T11:35:55;19.73;;;14.23;;
18574;SDS011;9417;16.484;102.872;2022-11-02T11:38:02;22.85;;;13.82;;
18574;SDS011;9417;16.484;102.872;2022-11-02T11:40:15;20.60;;;14.77;;
18574;SDS011;9417;16.484;102.872;2022-11-02T11:42:24;21.77;;;14.75;;
18574;SDS011;9417;16.484;102.872;2022-11-02T11:44:33;19.10;;;15.63;;
18574;SDS011;9417;16.484;102.872;2022-11-02T11:46:40;22.17;;;15.75;;
18574;SDS011;9417;16.484;102.872;2022-11-02T11:48:52;20.95;;;14.30;;
18574;SDS011;9417;16.484;102.872;2022-11-02T11:51:02;21.45;;;14.27;;
18574;SDS011;9417;16.484;102.872;2022-11-02T11:53:28;21.15;;;14.63;;
18574;SDS011;9417;16.484;102.872;2022-11-02T11:55:35;23.38;;;15.35;;
18574;SDS011;9417;16.484;102.872;2022-11-02T11:58:05;22.20;;;16.15;;
18574;SDS011;9417;16.484;102.872;2022-11-02T12:00:24;23.23;;;14.43;;
18574;SDS011;9417;16.484;102.872;2022-11-02T12:02:33;22.63;;;14.82;;
18574;SDS011;9417;16.484;102.872;2022-11-02T12:04:48;21.33;;;14.93;;
18574;SDS011;9417;16.484;102.872;2022-11-02T12:06:59;21.67;;;15.00;;
18574;SDS011;9417;16.484;102.872;2022-11-02T12:09:38;22.52;;;15.45;;
18574;SDS011;9417;16.484;102.872;2022-11-02T12:11:52;25.00;;;15.52;;
18574;SDS011;9417;16.484;102.872;2022-11-02T12:16:50;24.35;;;17.00;;
18574;SDS011;9417;16.484;102.872;2022-11-02T12:19:17;23.60;;;15.95;;
18574;SDS011;9417;16.484;102.872;2022-11-02T12:21:40;23.40;;;16.40;;
18574;SDS011;9417;16.484;102.872;2022-11-02T12:24:08;29.48;;;17.15;;
18574;SDS011;9417;16.484;102.872;2022-11-02T12:26:26;26.63;;;16.70;;
18574;SDS011;9417;16.484;102.872;2022-11-02T12:28:41;26.85;;;16.33;;
18574;SDS011;9417;16.484;102.872;2022-11-02T12:30:57;22.60;;;16.45;;
18574;SDS011;9417;16.484;102.872;2022-11-02T12:33:17;23.90;;;16.27;;
18574;SDS011;9417;16.484;102.872;2022-11-02T12:35:43;27.85;;;19.13;;
18574;SDS011;9417;16.484;102.872;2022-11-02T12:38:16;28.42;;;19.02;;
18574;SDS011;9417;16.484;102.872;2022-11-02T12:40:36;30.98;;;20.98;;
18574;SDS011;9417;16.484;102.872;2022-11-02T12:42:53;28.10;;;19.17;;
18574;SDS011;9417;16.484;102.872;2022-11-02T12:45:20;26.92;;;18.85;;
18574;SDS011;9417;16.484;102.872;2022-11-02T12:47:54;31.42;;;20.48;;
18574;SDS011;9417;16.484;102.872;2022-11-02T12:50:17;38.50;;;23.63;;
18574;SDS011;9417;16.484;102.872;2022-11-02T12:52:37;35.25;;;23.17;;
18574;SDS011;9417;16.484;102.872;2022-11-02T12:55:04;32.38;;;22.10;;
18574;SDS011;9417;16.484;102.872;2022-11-02T12:57:30;42.63;;;23.13;;
18574;SDS011;9417;16.484;102.872;2022-11-02T12:59:46;37.88;;;24.17;;
18574;SDS011;9417;16.484;102.872;2022-11-02T13:02:03;43.20;;;25.40;;
18574;SDS011;9417;16.484;102.872;2022-11-02T13:04:27;43.58;;;26.80;;